sensor_id;sensor_type;location;lat;lon;timestamp;temperature;humidity
70830;SHT30;58451;51.550;7.208;2022-09-27T00:01:07;10.56;88.06
70830;SHT30;58451;51.550;7.208;2022-09-27T00:03:37;10.55;88.18
70830;SHT30;58451;51.550;7.208;2022-09-27T00:06:06;10.55;88.10
70830;SHT30;58451;51.550;7.208;2022-09-27T00:08:50;10.53;88.14
70830;SHT30;58451;51.550;7.208;2022-09-27T00:13:57;10.52;88.21
70830;SHT30;58451;51.550;7.208;2022-09-27T00:16:26;10.51;88.17
70830;SHT30;58451;51.550;7.208;2022-09-27T00:19:00;10.51;88.09
70830;SHT30;58451;51.550;7.208;2022-09-27T00:21:39;10.52;88.15
70830;SHT30;58451;51.550;7.208;2022-09-27T00:24:12;10.52;88.16
70830;SHT30;58451;51.550;7.208;2022-09-27T00:26:47;10.52;88.14
70830;SHT30;58451;51.550;7.208;2022-09-27T00:29:16;10.51;88.19
70830;SHT30;58451;51.550;7.208;2022-09-27T00:31:44;10.51;88.54
70830;SHT30;58451;51.550;7.208;2022-09-27T00:34:22;10.50;88.60
70830;SHT30;58451;51.550;7.208;2022-09-27T00:36:51;10.49;88.46
70830;SHT30;58451;51.550;7.208;2022-09-27T00:39:18;10.48;88.49
70830;SHT30;58451;51.550;7.208;2022-09-27T00:41:45;10.45;88.59
70830;SHT30;58451;51.550;7.208;2022-09-27T00:49:37;10.41;88.91
70830;SHT30;58451;51.550;7.208;2022-09-27T00:52:16;10.38;89.03
70830;SHT30;58451;51.550;7.208;2022-09-27T00:54:54;10.37;88.92
70830;SHT30;58451;51.550;7.208;2022-09-27T00:57:32;10.37;88.95
70830;SHT30;58451;51.550;7.208;2022-09-27T01:00:02;10.37;88.88
70830;SHT30;58451;51.550;7.208;2022-09-27T01:02:37;10.37;88.94
70830;SHT30;58451;51.550;7.208;2022-09-27T01:05:11;10.38;89.03
70830;SHT30;58451;51.550;7.208;2022-09-27T01:07:41;10.38;89.09
70830;SHT30;58451;51.550;7.208;2022-09-27T01:10:08;10.38;89.22
70830;SHT30;58451;51.550;7.208;2022-09-27T01:13:25;10.39;89.20
70830;SHT30;58451;51.550;7.208;2022-09-27T01:15:50;10.39;89.33
70830;SHT30;58451;51.550;7.208;2022-09-27T01:24:23;10.38;89.32
70830;SHT30;58451;51.550;7.208;2022-09-27T01:27:10;10.36;89.34
70830;SHT30;58451;51.550;7.208;2022-09-27T01:36:24;10.33;89.22
70830;SHT30;58451;51.550;7.208;2022-09-27T01:43:04;10.31;89.29
70830;SHT30;58451;51.550;7.208;2022-09-27T01:45:50;10.31;89.39
70830;SHT30;58451;51.550;7.208;2022-09-27T01:48:58;10.31;89.39
70830;SHT30;58451;51.550;7.208;2022-09-27T01:51:38;10.30;89.40
70830;SHT30;58451;51.550;7.208;2022-09-27T01:54:22;10.30;89.41
70830;SHT30;58451;51.550;7.208;2022-09-27T01:57:24;10.30;89.39
70830;SHT30;58451;51.550;7.208;2022-09-27T02:00:02;10.30;89.38
70830;SHT30;58451;51.550;7.208;2022-09-27T02:02:39;10.30;89.51
70830;SHT30;58451;51.550;7.208;2022-09-27T02:05:30;10.30;89.44
70830;SHT30;58451;51.550;7.208;2022-09-27T02:08:42;10.31;89.36
70830;SHT30;58451;51.550;7.208;2022-09-27T02:11:37;10.31;89.28
70830;SHT30;58451;51.550;7.208;2022-09-27T02:14:17;10.31;89.17
70830;SHT30;58451;51.550;7.208;2022-09-27T02:20:17;10.33;88.90
70830;SHT30;58451;51.550;7.208;2022-09-27T02:25:58;10.34;88.95
70830;SHT30;58451;51.550;7.208;2022-09-27T02:28:42;10.35;88.84
70830;SHT30;58451;51.550;7.208;2022-09-27T02:31:18;10.35;88.89
70830;SHT30;58451;51.550;7.208;2022-09-27T02:33:46;10.35;88.90
70830;SHT30;58451;51.550;7.208;2022-09-27T02:36:25;10.35;88.82
70830;SHT30;58451;51.550;7.208;2022-09-27T02:38:53;10.36;88.75
70830;SHT30;58451;51.550;7.208;2022-09-27T02:41:20;10.36;88.66
70830;SHT30;58451;51.550;7.208;2022-09-27T02:43:51;10.34;88.68
70830;SHT30;58451;51.550;7.208;2022-09-27T03:02:10;10.28;88.48
70830;SHT30;58451;51.550;7.208;2022-09-27T03:05:24;10.26;88.52
70830;SHT30;58451;51.550;7.208;2022-09-27T03:07:56;10.23;88.57
70830;SHT30;58451;51.550;7.208;2022-09-27T03:10:25;10.20;88.62
70830;SHT30;58451;51.550;7.208;2022-09-27T03:12:55;10.18;88.62
70830;SHT30;58451;51.550;7.208;2022-09-27T03:15:26;10.17;88.75
70830;SHT30;58451;51.550;7.208;2022-09-27T03:17:59;10.16;88.79
70830;SHT30;58451;51.550;7.208;2022-09-27T03:20:45;10.16;88.70
70830;SHT30;58451;51.550;7.208;2022-09-27T03:23:19;10.17;88.66
70830;SHT30;58451;51.550;7.208;2022-09-27T03:25:47;10.18;88.66
70830;SHT30;58451;51.550;7.208;2022-09-27T03:28:14;10.17;88.49
70830;SHT30;58451;51.550;7.208;2022-09-27T03:30:43;10.16;88.42
70830;SHT30;58451;51.550;7.208;2022-09-27T03:33:16;10.13;88.40
70830;SHT30;58451;51.550;7.208;2022-09-27T03:35:46;10.10;88.31
70830;SHT30;58451;51.550;7.208;2022-09-27T03:38:13;10.06;88.30
70830;SHT30;58451;51.550;7.208;2022-09-27T03:40:40;10.03;88.27
70830;SHT30;58451;51.550;7.208;2022-09-27T03:43:08;9.98;88.21
70830;SHT30;58451;51.550;7.208;2022-09-27T03:45:34;9.93;88.15
70830;SHT30;58451;51.550;7.208;2022-09-27T03:48:04;9.87;88.12
70830;SHT30;58451;51.550;7.208;2022-09-27T03:50:31;9.81;88.17
70830;SHT30;58451;51.550;7.208;2022-09-27T03:52:58;9.78;88.33
70830;SHT30;58451;51.550;7.208;2022-09-27T03:55:25;9.78;88.37
70830;SHT30;58451;51.550;7.208;2022-09-27T03:57:52;9.79;88.30
70830;SHT30;58451;51.550;7.208;2022-09-27T04:00:19;9.80;88.19
70830;SHT30;58451;51.550;7.208;2022-09-27T04:02:47;9.79;88.23
70830;SHT30;58451;51.550;7.208;2022-09-27T04:05:24;9.77;88.33
70830;SHT30;58451;51.550;7.208;2022-09-27T04:07:59;9.77;88.42
70830;SHT30;58451;51.550;7.208;2022-09-27T04:10:28;9.78;88.54
70830;SHT30;58451;51.550;7.208;2022-09-27T04:12:55;9.76;88.56
70830;SHT30;58451;51.550;7.208;2022-09-27T04:15:24;9.76;88.55
70830;SHT30;58451;51.550;7.208;2022-09-27T04:18:11;9.77;88.63
70830;SHT30;58451;51.550;7.208;2022-09-27T04:20:58;9.77;88.62
70830;SHT30;58451;51.550;7.208;2022-09-27T04:23:25;9.77;88.70
70830;SHT30;58451;51.550;7.208;2022-09-27T04:25:55;9.78;88.77
70830;SHT30;58451;51.550;7.208;2022-09-27T04:28:41;9.82;88.68
70830;SHT30;58451;51.550;7.208;2022-09-27T04:31:07;9.86;88.54
70830;SHT30;58451;51.550;7.208;2022-09-27T04:33:49;9.87;88.47
70830;SHT30;58451;51.550;7.208;2022-09-27T04:36:30;9.91;88.27
70830;SHT30;58451;51.550;7.208;2022-09-27T04:39:01;9.92;87.97
70830;SHT30;58451;51.550;7.208;2022-09-27T04:41:33;9.96;87.81
70830;SHT30;58451;51.550;7.208;2022-09-27T04:44:02;9.96;87.82
70830;SHT30;58451;51.550;7.208;2022-09-27T04:46:32;9.97;87.65
70830;SHT30;58451;51.550;7.208;2022-09-27T04:49:00;9.98;87.69
70830;SHT30;58451;51.550;7.208;2022-09-27T04:51:29;9.98;87.74
70830;SHT30;58451;51.550;7.208;2022-09-27T04:53:56;9.98;87.67
70830;SHT30;58451;51.550;7.208;2022-09-27T04:56:27;9.97;87.60
70830;SHT30;58451;51.550;7.208;2022-09-27T04:58:54;9.97;87.53
70830;SHT30;58451;51.550;7.208;2022-09-27T05:01:22;9.96;87.50
70830;SHT30;58451;51.550;7.208;2022-09-27T05:03:57;9.96;87.60
70830;SHT30;58451;51.550;7.208;2022-09-27T05:06:25;9.95;87.61
70830;SHT30;58451;51.550;7.208;2022-09-27T05:08:54;9.95;87.61
70830;SHT30;58451;51.550;7.208;2022-09-27T05:11:26;9.96;87.72
70830;SHT30;58451;51.550;7.208;2022-09-27T05:14:22;9.95;87.69
70830;SHT30;58451;51.550;7.208;2022-09-27T05:17:07;9.96;87.66
70830;SHT30;58451;51.550;7.208;2022-09-27T05:19:54;9.94;87.70
70830;SHT30;58451;51.550;7.208;2022-09-27T05:22:31;9.93;87.80
70830;SHT30;58451;51.550;7.208;2022-09-27T05:24:58;9.92;87.75
70830;SHT30;58451;51.550;7.208;2022-09-27T05:27:25;9.91;87.72
70830;SHT30;58451;51.550;7.208;2022-09-27T05:29:52;9.90;87.69
70830;SHT30;58451;51.550;7.208;2022-09-27T05:32:23;9.89;87.65
70830;SHT30;58451;51.550;7.208;2022-09-27T05:34:59;9.87;87.66
70830;SHT30;58451;51.550;7.208;2022-09-27T05:37:26;9.85;87.61
70830;SHT30;58451;51.550;7.208;2022-09-27T05:39:53;9.86;87.56
70830;SHT30;58451;51.550;7.208;2022-09-27T05:42:20;9.86;87.57
70830;SHT30;58451;51.550;7.208;2022-09-27T05:44:47;9.86;87.40
70830;SHT30;58451;51.550;7.208;2022-09-27T05:47:14;9.88;87.38
70830;SHT30;58451;51.550;7.208;2022-09-27T05:49:42;9.90;87.29
70830;SHT30;58451;51.550;7.208;2022-09-27T05:52:09;9.92;87.14
70830;SHT30;58451;51.550;7.208;2022-09-27T05:54:42;9.94;87.03
70830;SHT30;58451;51.550;7.208;2022-09-27T05:57:09;9.97;86.74
70830;SHT30;58451;51.550;7.208;2022-09-27T05:59:42;10.00;86.50
70830;SHT30;58451;51.550;7.208;2022-09-27T06:02:43;10.05;86.14
70830;SHT30;58451;51.550;7.208;2022-09-27T06:05:36;10.11;85.79
70830;SHT30;58451;51.550;7.208;2022-09-27T06:08:24;10.13;85.56
70830;SHT30;58451;51.550;7.208;2022-09-27T06:10:58;10.14;85.38
70830;SHT30;58451;51.550;7.208;2022-09-27T06:13:31;10.14;85.01
70830;SHT30;58451;51.550;7.208;2022-09-27T06:15:59;10.13;84.58
70830;SHT30;58451;51.550;7.208;2022-09-27T06:18:27;10.14;84.48
70830;SHT30;58451;51.550;7.208;2022-09-27T06:20:54;10.15;84.51
70830;SHT30;58451;51.550;7.208;2022-09-27T06:23:21;10.14;84.48
70830;SHT30;58451;51.550;7.208;2022-09-27T06:25:49;10.16;84.56
70830;SHT30;58451;51.550;7.208;2022-09-27T06:28:20;10.18;84.41
70830;SHT30;58451;51.550;7.208;2022-09-27T06:30:53;10.20;84.09
70830;SHT30;58451;51.550;7.208;2022-09-27T06:33:28;10.21;84.00
70830;SHT30;58451;51.550;7.208;2022-09-27T06:36:02;10.23;84.00
70830;SHT30;58451;51.550;7.208;2022-09-27T06:38:35;10.27;83.93
70830;SHT30;58451;51.550;7.208;2022-09-27T06:41:18;10.28;83.53
70830;SHT30;58451;51.550;7.208;2022-09-27T06:44:08;10.29;83.72
70830;SHT30;58451;51.550;7.208;2022-09-27T06:46:46;10.31;83.56
70830;SHT30;58451;51.550;7.208;2022-09-27T06:49:20;10.29;83.50
70830;SHT30;58451;51.550;7.208;2022-09-27T06:51:50;10.26;83.30
70830;SHT30;58451;51.550;7.208;2022-09-27T06:54:21;10.26;83.42
70830;SHT30;58451;51.550;7.208;2022-09-27T06:56:47;10.30;83.45
70830;SHT30;58451;51.550;7.208;2022-09-27T06:59:15;10.33;83.00
70830;SHT30;58451;51.550;7.208;2022-09-27T07:02:19;10.30;82.98
70830;SHT30;58451;51.550;7.208;2022-09-27T07:04:57;10.27;83.02
70830;SHT30;58451;51.550;7.208;2022-09-27T07:07:37;10.25;82.79
70830;SHT30;58451;51.550;7.208;2022-09-27T07:10:04;10.22;82.77
70830;SHT30;58451;51.550;7.208;2022-09-27T07:12:35;10.24;82.79
70830;SHT30;58451;51.550;7.208;2022-09-27T07:15:04;10.27;82.30
70830;SHT30;58451;51.550;7.208;2022-09-27T07:17:32;10.32;82.40
70830;SHT30;58451;51.550;7.208;2022-09-27T07:20:01;10.38;82.45
70830;SHT30;58451;51.550;7.208;2022-09-27T07:22:28;10.37;82.06
70830;SHT30;58451;51.550;7.208;2022-09-27T07:24:59;10.38;81.96
70830;SHT30;58451;51.550;7.208;2022-09-27T07:27:26;10.44;81.80
70830;SHT30;58451;51.550;7.208;2022-09-27T07:29:54;10.48;81.57
70830;SHT30;58451;51.550;7.208;2022-09-27T07:32:22;10.51;81.27
70830;SHT30;58451;51.550;7.208;2022-09-27T07:34:49;10.52;81.40
70830;SHT30;58451;51.550;7.208;2022-09-27T07:37:16;10.54;81.26
70830;SHT30;58451;51.550;7.208;2022-09-27T07:39:43;10.53;81.06
70830;SHT30;58451;51.550;7.208;2022-09-27T07:42:11;10.59;81.09
70830;SHT30;58451;51.550;7.208;2022-09-27T07:44:42;10.69;80.38
70830;SHT30;58451;51.550;7.208;2022-09-27T07:47:27;10.76;79.94
70830;SHT30;58451;51.550;7.208;2022-09-27T07:50:14;10.81;79.74
70830;SHT30;58451;51.550;7.208;2022-09-27T07:53:08;10.89;79.73
70830;SHT30;58451;51.550;7.208;2022-09-27T07:55:50;10.93;79.43
70830;SHT30;58451;51.550;7.208;2022-09-27T07:58:22;10.93;79.67
70830;SHT30;58451;51.550;7.208;2022-09-27T08:00:51;10.90;79.07
70830;SHT30;58451;51.550;7.208;2022-09-27T08:03:20;10.86;79.14
70830;SHT30;58451;51.550;7.208;2022-09-27T08:05:47;10.87;79.26
70830;SHT30;58451;51.550;7.208;2022-09-27T08:08:14;10.93;79.06
70830;SHT30;58451;51.550;7.208;2022-09-27T08:10:43;10.99;78.77
70830;SHT30;58451;51.550;7.208;2022-09-27T08:13:13;11.11;78.49
70830;SHT30;58451;51.550;7.208;2022-09-27T08:15:47;11.23;78.00
70830;SHT30;58451;51.550;7.208;2022-09-27T08:18:14;11.33;77.11
70830;SHT30;58451;51.550;7.208;2022-09-27T08:20:51;11.36;76.51
70830;SHT30;58451;51.550;7.208;2022-09-27T08:23:37;11.45;76.34
70830;SHT30;58451;51.550;7.208;2022-09-27T08:26:27;11.48;76.00
70830;SHT30;58451;51.550;7.208;2022-09-27T08:29:16;11.52;76.37
70830;SHT30;58451;51.550;7.208;2022-09-27T08:31:52;11.55;76.00
70830;SHT30;58451;51.550;7.208;2022-09-27T08:34:20;11.57;75.67
70830;SHT30;58451;51.550;7.208;2022-09-27T08:36:47;11.85;75.44
70830;SHT30;58451;51.550;7.208;2022-09-27T08:39:14;12.25;73.82
70830;SHT30;58451;51.550;7.208;2022-09-27T08:47:36;12.80;71.10
70830;SHT30;58451;51.550;7.208;2022-09-27T08:55:55;13.19;69.05
70830;SHT30;58451;51.550;7.208;2022-09-27T09:01:40;13.28;69.72
70830;SHT30;58451;51.550;7.208;2022-09-27T09:04:14;13.38;69.49
70830;SHT30;58451;51.550;7.208;2022-09-27T09:22:59;12.57;70.00
70830;SHT30;58451;51.550;7.208;2022-09-27T09:34:34;12.63;70.14
70830;SHT30;58451;51.550;7.208;2022-09-27T09:37:11;12.72;69.99
70830;SHT30;58451;51.550;7.208;2022-09-27T09:39:55;12.75;70.17
70830;SHT30;58451;51.550;7.208;2022-09-27T09:42:37;12.75;70.36
70830;SHT30;58451;51.550;7.208;2022-09-27T09:45:25;12.71;70.51
70830;SHT30;58451;51.550;7.208;2022-09-27T09:50:47;12.86;70.92
70830;SHT30;58451;51.550;7.208;2022-09-27T09:53:21;12.98;70.63
70830;SHT30;58451;51.550;7.208;2022-09-27T09:56:06;12.99;70.65
70830;SHT30;58451;51.550;7.208;2022-09-27T09:58:50;12.98;70.71
70830;SHT30;58451;51.550;7.208;2022-09-27T10:04:19;13.18;70.37
70830;SHT30;58451;51.550;7.208;2022-09-27T10:06:50;13.22;69.65
70830;SHT30;58451;51.550;7.208;2022-09-27T10:09:23;13.05;70.49
70830;SHT30;58451;51.550;7.208;2022-09-27T10:12:12;12.94;70.66
70830;SHT30;58451;51.550;7.208;2022-09-27T10:14:40;12.91;70.79
70830;SHT30;58451;51.550;7.208;2022-09-27T10:17:13;12.89;70.72
70830;SHT30;58451;51.550;7.208;2022-09-27T10:19:44;12.94;71.33
70830;SHT30;58451;51.550;7.208;2022-09-27T10:22:18;12.82;71.64
70830;SHT30;58451;51.550;7.208;2022-09-27T10:25:11;12.49;72.30
70830;SHT30;58451;51.550;7.208;2022-09-27T10:27:47;12.31;73.30
70830;SHT30;58451;51.550;7.208;2022-09-27T10:30:30;12.30;73.12
70830;SHT30;58451;51.550;7.208;2022-09-27T10:33:16;12.43;73.24
70830;SHT30;58451;51.550;7.208;2022-09-27T10:35:58;12.67;72.91
70830;SHT30;58451;51.550;7.208;2022-09-27T10:38:32;12.78;72.03
70830;SHT30;58451;51.550;7.208;2022-09-27T10:41:16;12.72;72.11
70830;SHT30;58451;51.550;7.208;2022-09-27T10:44:18;12.66;72.59
70830;SHT30;58451;51.550;7.208;2022-09-27T10:47:05;12.52;73.05
70830;SHT30;58451;51.550;7.208;2022-09-27T10:49:42;12.26;74.50
70830;SHT30;58451;51.550;7.208;2022-09-27T10:52:25;11.95;75.88
70830;SHT30;58451;51.550;7.208;2022-09-27T10:54:54;11.74;76.90
70830;SHT30;58451;51.550;7.208;2022-09-27T10:57:39;11.57;77.62
70830;SHT30;58451;51.550;7.208;2022-09-27T11:00:54;11.77;77.49
70830;SHT30;58451;51.550;7.208;2022-09-27T11:03:13;11.87;77.59
70830;SHT30;58451;51.550;7.208;2022-09-27T11:05:43;11.81;77.80
70830;SHT30;58451;51.550;7.208;2022-09-27T11:13:56;12.44;76.86
70830;SHT30;58451;51.550;7.208;2022-09-27T11:16:54;12.61;76.60
70830;SHT30;58451;51.550;7.208;2022-09-27T11:28:42;12.28;76.40
70830;SHT30;58451;51.550;7.208;2022-09-27T11:58:52;13.38;68.10
70830;SHT30;58451;51.550;7.208;2022-09-27T12:02:08;13.22;67.98
70830;SHT30;58451;51.550;7.208;2022-09-27T12:08:09;12.75;69.04
70830;SHT30;58451;51.550;7.208;2022-09-27T12:10:50;12.75;69.02
70830;SHT30;58451;51.550;7.208;2022-09-27T12:13:33;12.84;69.17
70830;SHT30;58451;51.550;7.208;2022-09-27T12:16:07;12.94;67.63
70830;SHT30;58451;51.550;7.208;2022-09-27T12:18:38;13.11;67.46
70830;SHT30;58451;51.550;7.208;2022-09-27T12:21:23;13.28;66.67
70830;SHT30;58451;51.550;7.208;2022-09-27T12:23:55;13.44;66.63
70830;SHT30;58451;51.550;7.208;2022-09-27T12:26:33;13.52;66.72
70830;SHT30;58451;51.550;7.208;2022-09-27T12:38:03;13.53;68.04
70830;SHT30;58451;51.550;7.208;2022-09-27T12:40:40;13.89;67.63
70830;SHT30;58451;51.550;7.208;2022-09-27T12:43:16;14.20;66.91
70830;SHT30;58451;51.550;7.208;2022-09-27T12:51:38;13.89;66.29
70830;SHT30;58451;51.550;7.208;2022-09-27T13:00:22;13.69;66.91
70830;SHT30;58451;51.550;7.208;2022-09-27T13:03:22;13.48;67.85
70830;SHT30;58451;51.550;7.208;2022-09-27T13:12:00;13.18;68.65
70830;SHT30;58451;51.550;7.208;2022-09-27T13:14:53;13.31;68.89
70830;SHT30;58451;51.550;7.208;2022-09-27T13:17:30;13.41;68.59
70830;SHT30;58451;51.550;7.208;2022-09-27T13:19:58;13.35;68.93
70830;SHT30;58451;51.550;7.208;2022-09-27T13:22:35;13.42;69.25
70830;SHT30;58451;51.550;7.208;2022-09-27T13:31:59;13.30;69.92
70830;SHT30;58451;51.550;7.208;2022-09-27T13:45:57;12.81;68.41
70830;SHT30;58451;51.550;7.208;2022-09-27T13:51:04;12.98;67.31
70830;SHT30;58451;51.550;7.208;2022-09-27T13:54:03;13.05;66.20
70830;SHT30;58451;51.550;7.208;2022-09-27T13:56:53;13.18;64.88
70830;SHT30;58451;51.550;7.208;2022-09-27T14:02:38;13.54;64.09
70830;SHT30;58451;51.550;7.208;2022-09-27T14:05:19;13.70;63.80
70830;SHT30;58451;51.550;7.208;2022-09-27T14:07:56;13.54;63.32
70830;SHT30;58451;51.550;7.208;2022-09-27T14:10:28;13.41;64.40
70830;SHT30;58451;51.550;7.208;2022-09-27T14:12:59;13.40;64.44
70830;SHT30;58451;51.550;7.208;2022-09-27T14:15:31;13.48;63.97
70830;SHT30;58451;51.550;7.208;2022-09-27T14:18:00;13.57;63.71
70830;SHT30;58451;51.550;7.208;2022-09-27T14:20:32;13.81;63.38
70830;SHT30;58451;51.550;7.208;2022-09-27T14:23:21;14.07;62.43
70830;SHT30;58451;51.550;7.208;2022-09-27T14:25:52;14.11;61.50
70830;SHT30;58451;51.550;7.208;2022-09-27T14:28:25;14.18;60.81
70830;SHT30;58451;51.550;7.208;2022-09-27T14:31:17;14.42;60.25
70830;SHT30;58451;51.550;7.208;2022-09-27T14:34:04;14.52;59.65
70830;SHT30;58451;51.550;7.208;2022-09-27T14:36:38;14.44;59.90
70830;SHT30;58451;51.550;7.208;2022-09-27T14:39:28;14.37;59.95
70830;SHT30;58451;51.550;7.208;2022-09-27T14:42:04;14.22;60.19
70830;SHT30;58451;51.550;7.208;2022-09-27T14:44:45;14.08;60.74
70830;SHT30;58451;51.550;7.208;2022-09-27T14:52:24;13.57;61.34
70830;SHT30;58451;51.550;7.208;2022-09-27T14:54:57;13.59;61.12
70830;SHT30;58451;51.550;7.208;2022-09-27T14:57:44;13.76;61.07
70830;SHT30;58451;51.550;7.208;2022-09-27T15:00:53;13.76;60.03
70830;SHT30;58451;51.550;7.208;2022-09-27T15:03:28;13.78;60.50
70830;SHT30;58451;51.550;7.208;2022-09-27T15:06:05;13.81;60.97
70830;SHT30;58451;51.550;7.208;2022-09-27T15:08:33;13.75;61.14
70830;SHT30;58451;51.550;7.208;2022-09-27T15:11:03;13.66;61.05
70830;SHT30;58451;51.550;7.208;2022-09-27T15:13:33;13.57;61.17
70830;SHT30;58451;51.550;7.208;2022-09-27T15:16:07;13.46;61.15
70830;SHT30;58451;51.550;7.208;2022-09-27T15:18:42;13.32;61.60
70830;SHT30;58451;51.550;7.208;2022-09-27T15:21:14;13.18;61.98
70830;SHT30;58451;51.550;7.208;2022-09-27T15:23:59;13.10;62.00
70830;SHT30;58451;51.550;7.208;2022-09-27T15:29:02;12.92;62.08
70830;SHT30;58451;51.550;7.208;2022-09-27T15:31:31;12.83;62.43
70830;SHT30;58451;51.550;7.208;2022-09-27T15:34:01;12.80;62.93
70830;SHT30;58451;51.550;7.208;2022-09-27T15:39:15;12.73;62.82
70830;SHT30;58451;51.550;7.208;2022-09-27T15:49:57;12.78;62.12
70830;SHT30;58451;51.550;7.208;2022-09-27T15:52:46;12.79;62.16
70830;SHT30;58451;51.550;7.208;2022-09-27T15:55:21;12.81;62.32
70830;SHT30;58451;51.550;7.208;2022-09-27T15:58:05;12.80;62.28
70830;SHT30;58451;51.550;7.208;2022-09-27T16:00:57;12.76;62.49
70830;SHT30;58451;51.550;7.208;2022-09-27T16:03:31;12.73;62.60
70830;SHT30;58451;51.550;7.208;2022-09-27T16:06:00;12.70;62.61
70830;SHT30;58451;51.550;7.208;2022-09-27T16:08:29;12.62;63.05
70830;SHT30;58451;51.550;7.208;2022-09-27T16:10:56;12.62;63.53
70830;SHT30;58451;51.550;7.208;2022-09-27T16:13:25;12.66;63.80
70830;SHT30;58451;51.550;7.208;2022-09-27T16:15:58;12.66;64.09
70830;SHT30;58451;51.550;7.208;2022-09-27T16:18:27;12.63;64.37
70830;SHT30;58451;51.550;7.208;2022-09-27T16:20:57;12.62;64.53
70830;SHT30;58451;51.550;7.208;2022-09-27T16:23:24;12.51;64.57
70830;SHT30;58451;51.550;7.208;2022-09-27T16:25:52;12.41;64.80
70830;SHT30;58451;51.550;7.208;2022-09-27T16:28:19;12.34;65.20
70830;SHT30;58451;51.550;7.208;2022-09-27T16:30:49;12.29;65.59
70830;SHT30;58451;51.550;7.208;2022-09-27T16:33:16;12.28;66.05
70830;SHT30;58451;51.550;7.208;2022-09-27T16:35:43;12.29;66.22
70830;SHT30;58451;51.550;7.208;2022-09-27T16:38:10;12.29;66.24
70830;SHT30;58451;51.550;7.208;2022-09-27T16:40:37;12.31;66.28
70830;SHT30;58451;51.550;7.208;2022-09-27T16:43:05;12.30;66.40
70830;SHT30;58451;51.550;7.208;2022-09-27T16:45:33;12.27;66.48
70830;SHT30;58451;51.550;7.208;2022-09-27T16:48:02;12.22;66.54
70830;SHT30;58451;51.550;7.208;2022-09-27T16:50:29;12.16;66.71
70830;SHT30;58451;51.550;7.208;2022-09-27T16:53:14;12.08;66.90
70830;SHT30;58451;51.550;7.208;2022-09-27T16:55:42;11.98;67.22
70830;SHT30;58451;51.550;7.208;2022-09-27T16:58:10;11.90;67.68
70830;SHT30;58451;51.550;7.208;2022-09-27T17:00:38;11.80;68.20
70830;SHT30;58451;51.550;7.208;2022-09-27T17:03:07;11.71;69.03
70830;SHT30;58451;51.550;7.208;2022-09-27T17:05:34;11.61;69.73
70830;SHT30;58451;51.550;7.208;2022-09-27T17:08:00;11.52;70.01
70830;SHT30;58451;51.550;7.208;2022-09-27T17:10:27;11.44;70.36
70830;SHT30;58451;51.550;7.208;2022-09-27T17:12:57;11.36;70.26
70830;SHT30;58451;51.550;7.208;2022-09-27T17:15:26;11.30;70.03
70830;SHT30;58451;51.550;7.208;2022-09-27T17:17:54;11.21;70.51
70830;SHT30;58451;51.550;7.208;2022-09-27T17:20:21;11.15;70.36
70830;SHT30;58451;51.550;7.208;2022-09-27T17:22:48;11.10;70.50
70830;SHT30;58451;51.550;7.208;2022-09-27T17:25:15;11.06;70.49
70830;SHT30;58451;51.550;7.208;2022-09-27T17:27:42;11.02;70.85
70830;SHT30;58451;51.550;7.208;2022-09-27T17:30:09;10.98;71.45
70830;SHT30;58451;51.550;7.208;2022-09-27T17:32:36;10.95;70.98
70830;SHT30;58451;51.550;7.208;2022-09-27T17:35:04;10.93;71.42
70830;SHT30;58451;51.550;7.208;2022-09-27T17:37:34;10.89;71.71
70830;SHT30;58451;51.550;7.208;2022-09-27T17:40:01;10.85;71.44
70830;SHT30;58451;51.550;7.208;2022-09-27T17:42:30;10.82;71.37
70830;SHT30;58451;51.550;7.208;2022-09-27T17:44:56;10.81;71.47
70830;SHT30;58451;51.550;7.208;2022-09-27T17:47:23;10.78;71.48
70830;SHT30;58451;51.550;7.208;2022-09-27T17:50:09;10.75;71.89
70830;SHT30;58451;51.550;7.208;2022-09-27T17:52:53;10.70;72.03
70830;SHT30;58451;51.550;7.208;2022-09-27T17:55:22;10.67;72.07
70830;SHT30;58451;51.550;7.208;2022-09-27T17:57:50;10.63;72.20
70830;SHT30;58451;51.550;7.208;2022-09-27T18:00:17;10.60;72.29
70830;SHT30;58451;51.550;7.208;2022-09-27T18:02:45;10.55;72.30
70830;SHT30;58451;51.550;7.208;2022-09-27T18:05:13;10.52;72.17
70830;SHT30;58451;51.550;7.208;2022-09-27T18:07:40;10.49;72.42
70830;SHT30;58451;51.550;7.208;2022-09-27T18:10:07;10.46;72.28
70830;SHT30;58451;51.550;7.208;2022-09-27T18:12:34;10.43;72.51
70830;SHT30;58451;51.550;7.208;2022-09-27T18:15:02;10.40;72.60
70830;SHT30;58451;51.550;7.208;2022-09-27T18:17:29;10.38;73.01
70830;SHT30;58451;51.550;7.208;2022-09-27T18:19:56;10.35;72.98
70830;SHT30;58451;51.550;7.208;2022-09-27T18:22:25;10.33;73.05
70830;SHT30;58451;51.550;7.208;2022-09-27T18:24:56;10.33;72.88
70830;SHT30;58451;51.550;7.208;2022-09-27T18:27:23;10.33;72.88
70830;SHT30;58451;51.550;7.208;2022-09-27T18:29:50;10.34;73.12
70830;SHT30;58451;51.550;7.208;2022-09-27T18:32:18;10.34;73.28
70830;SHT30;58451;51.550;7.208;2022-09-27T18:34:44;10.35;73.34
70830;SHT30;58451;51.550;7.208;2022-09-27T18:37:11;10.34;73.42
70830;SHT30;58451;51.550;7.208;2022-09-27T18:39:38;10.35;73.57
70830;SHT30;58451;51.550;7.208;2022-09-27T18:42:06;10.34;73.59
70830;SHT30;58451;51.550;7.208;2022-09-27T18:44:34;10.35;73.75
70830;SHT30;58451;51.550;7.208;2022-09-27T18:47:01;10.34;73.73
70830;SHT30;58451;51.550;7.208;2022-09-27T18:49:29;10.32;73.76
70830;SHT30;58451;51.550;7.208;2022-09-27T18:51:59;10.30;73.84
70830;SHT30;58451;51.550;7.208;2022-09-27T18:54:28;10.29;73.97
70830;SHT30;58451;51.550;7.208;2022-09-27T18:56:54;10.28;74.30
70830;SHT30;58451;51.550;7.208;2022-09-27T18:59:23;10.25;74.84
70830;SHT30;58451;51.550;7.208;2022-09-27T19:01:49;10.22;74.73
70830;SHT30;58451;51.550;7.208;2022-09-27T19:04:17;10.19;75.46
70830;SHT30;58451;51.550;7.208;2022-09-27T19:06:51;10.14;75.76
70830;SHT30;58451;51.550;7.208;2022-09-27T19:09:20;10.09;75.88
70830;SHT30;58451;51.550;7.208;2022-09-27T19:11:48;10.06;76.13
70830;SHT30;58451;51.550;7.208;2022-09-27T19:14:16;10.04;76.03
70830;SHT30;58451;51.550;7.208;2022-09-27T19:16:46;10.02;76.18
70830;SHT30;58451;51.550;7.208;2022-09-27T19:19:15;10.01;76.16
70830;SHT30;58451;51.550;7.208;2022-09-27T19:21:44;9.98;76.91
70830;SHT30;58451;51.550;7.208;2022-09-27T19:24:11;9.95;77.22
70830;SHT30;58451;51.550;7.208;2022-09-27T19:26:41;9.93;76.82
70830;SHT30;58451;51.550;7.208;2022-09-27T19:29:08;9.94;76.48
70830;SHT30;58451;51.550;7.208;2022-09-27T19:31:36;9.93;76.52
70830;SHT30;58451;51.550;7.208;2022-09-27T19:34:03;9.91;76.56
70830;SHT30;58451;51.550;7.208;2022-09-27T19:36:32;9.90;76.83
70830;SHT30;58451;51.550;7.208;2022-09-27T19:38:58;9.90;76.50
70830;SHT30;58451;51.550;7.208;2022-09-27T19:41:27;9.90;76.85
70830;SHT30;58451;51.550;7.208;2022-09-27T19:43:55;9.88;76.97